createdAt,value
2023-04-02T00:00:46.112Z,9.50
2023-04-02T00:01:46.164Z,9.49
2023-04-02T00:02:46.153Z,9.50
2023-04-02T00:03:46.234Z,9.51
2023-04-02T00:04:46.140Z,9.50
2023-04-02T00:05:46.154Z,9.50
2023-04-02T00:06:46.120Z,9.51
2023-04-02T00:07:46.128Z,9.51
2023-04-02T00:08:46.122Z,9.52
2023-04-02T00:09:46.168Z,9.56
2023-04-02T00:10:46.138Z,9.58
2023-04-02T00:11:46.123Z,9.60
2023-04-02T00:12:46.146Z,9.60
2023-04-02T00:13:46.120Z,9.62
2023-04-02T00:14:46.172Z,9.62
2023-04-02T00:15:46.115Z,9.63
2023-04-02T00:16:46.244Z,9.65
2023-04-02T00:17:46.218Z,9.66
2023-04-02T00:18:46.139Z,9.61
2023-04-02T00:19:46.120Z,9.60
2023-04-02T00:20:46.120Z,9.62
2023-04-02T00:21:46.119Z,9.62
2023-04-02T00:22:47.268Z,9.63
2023-04-02T00:23:46.155Z,9.65
2023-04-02T00:24:46.126Z,9.64
2023-04-02T00:25:46.131Z,9.64
2023-04-02T00:26:46.118Z,9.62
2023-04-02T00:27:46.146Z,9.56
2023-04-02T00:28:46.165Z,9.56
2023-04-02T00:29:46.118Z,9.55
2023-04-02T00:30:46.117Z,9.56
2023-04-02T00:31:46.203Z,9.49
2023-04-02T00:32:47.320Z,9.37
2023-04-02T00:33:46.189Z,9.40
2023-04-02T00:34:46.117Z,9.46
2023-04-02T00:35:46.126Z,9.49
2023-04-02T00:36:46.127Z,9.51
2023-04-02T00:37:46.126Z,9.53
2023-04-02T00:38:47.552Z,9.53
2023-04-02T00:39:46.161Z,9.50
2023-04-02T00:40:46.128Z,9.49
2023-04-02T00:41:46.119Z,9.48
2023-04-02T00:42:46.141Z,9.51
2023-04-02T00:43:46.113Z,9.54
2023-04-02T00:44:46.146Z,9.57
2023-04-02T00:45:46.139Z,9.57
2023-04-02T00:46:46.114Z,9.54
2023-04-02T00:47:46.155Z,9.47
2023-04-02T00:48:46.115Z,9.47
2023-04-02T00:49:46.111Z,9.51
2023-04-02T00:50:46.121Z,9.54
2023-04-02T00:51:46.131Z,9.57
2023-04-02T00:52:46.146Z,9.60
2023-04-02T00:53:46.130Z,9.60
2023-04-02T00:54:46.137Z,9.62
2023-04-02T00:55:46.157Z,9.60
2023-04-02T00:56:46.182Z,9.60
2023-04-02T00:57:46.179Z,9.55
2023-04-02T00:58:46.162Z,9.54
2023-04-02T00:59:46.180Z,9.55
2023-04-02T01:00:46.203Z,9.57
2023-04-02T01:01:46.306Z,9.57
2023-04-02T01:02:46.253Z,9.57
2023-04-02T01:03:46.280Z,9.58
2023-04-02T01:04:46.216Z,9.59
2023-04-02T01:05:46.233Z,9.60
2023-04-02T01:06:46.311Z,9.59
2023-04-02T01:07:46.228Z,9.59
2023-04-02T01:08:46.248Z,9.60
2023-04-02T01:09:46.267Z,9.61
2023-04-02T01:10:46.246Z,9.63
2023-04-02T01:11:46.256Z,9.62
2023-04-02T01:12:46.286Z,9.62
2023-04-02T01:13:46.255Z,9.55
2023-04-02T01:14:46.263Z,9.43
2023-04-02T01:15:46.309Z,9.31
2023-04-02T01:16:46.335Z,9.23
2023-04-02T01:17:46.386Z,9.21
2023-04-02T01:18:46.384Z,9.18
2023-04-02T01:19:46.336Z,9.11
2023-04-02T01:20:46.354Z,9.15
2023-04-02T01:21:46.410Z,9.20
2023-04-02T01:22:46.491Z,9.24
2023-04-02T01:23:46.545Z,9.28
2023-04-02T01:24:46.619Z,9.31
2023-04-02T01:25:46.657Z,9.31
2023-04-02T01:26:46.698Z,9.33
2023-04-02T01:27:46.763Z,9.34
2023-04-02T01:28:46.807Z,9.35
2023-04-02T01:29:46.849Z,9.34
2023-04-02T01:30:46.908Z,9.33
2023-04-02T01:31:46.983Z,9.31
2023-04-02T01:32:47.108Z,9.28
2023-04-02T01:33:47.070Z,9.27
2023-04-02T01:34:47.170Z,9.23
2023-04-02T01:35:47.271Z,9.23
2023-04-02T01:36:47.297Z,9.26
2023-04-02T01:37:47.358Z,9.19
2023-04-02T01:38:47.403Z,9.11
2023-04-02T01:39:47.457Z,9.13
2023-04-02T01:40:47.522Z,9.16
2023-04-02T01:41:47.566Z,9.19
2023-04-02T01:42:47.622Z,9.22
2023-04-02T01:43:47.692Z,9.21
2023-04-02T01:44:47.747Z,9.16
2023-04-02T01:45:47.812Z,9.04
2023-04-02T01:46:47.916Z,8.92
2023-04-02T01:47:47.939Z,8.77
2023-04-02T01:48:47.969Z,8.76
2023-04-02T01:49:47.984Z,8.84
2023-04-02T01:50:48.037Z,8.92
2023-04-02T01:51:48.054Z,8.99
2023-04-02T01:52:48.082Z,9.05
2023-04-02T01:53:48.122Z,9.13
2023-04-02T01:54:48.160Z,9.22
2023-04-02T01:55:48.181Z,9.26
2023-04-02T01:56:48.216Z,9.31
2023-04-02T01:57:48.230Z,9.27
2023-04-02T01:58:48.304Z,9.12
2023-04-02T01:59:48.343Z,9.06
2023-04-02T02:00:48.393Z,9.10
2023-04-02T02:01:48.516Z,9.15
2023-04-02T02:02:48.584Z,9.20
2023-04-02T02:03:48.608Z,9.18
2023-04-02T02:04:48.683Z,9.13
2023-04-02T02:05:48.694Z,9.13
2023-04-02T02:06:48.729Z,9.17
2023-04-02T02:07:48.778Z,9.20
2023-04-02T02:08:48.878Z,9.23
2023-04-02T02:09:48.890Z,9.28
2023-04-02T02:10:48.936Z,9.32
2023-04-02T02:11:48.978Z,9.34
2023-04-02T02:12:49.023Z,9.37
2023-04-02T02:13:49.072Z,9.39
2023-04-02T02:14:49.108Z,9.39
2023-04-02T02:15:49.167Z,9.31
2023-04-02T02:16:49.308Z,9.23
2023-04-02T02:17:49.320Z,9.22
2023-04-02T02:18:49.367Z,9.27
2023-04-02T02:19:49.439Z,9.31
2023-04-02T02:20:49.485Z,9.34
2023-04-02T02:21:49.513Z,9.28
2023-04-02T02:22:49.623Z,9.29
2023-04-02T02:23:49.653Z,9.33
2023-04-02T02:24:49.708Z,9.37
2023-04-02T02:25:49.767Z,9.40
2023-04-02T02:26:49.815Z,9.42
2023-04-02T02:27:49.875Z,9.40
2023-04-02T02:28:49.933Z,9.39
2023-04-02T02:29:49.953Z,9.42
2023-04-02T02:30:50.002Z,9.43
2023-04-02T02:31:50.129Z,9.40
2023-04-02T02:32:50.108Z,9.39
2023-04-02T02:33:50.139Z,9.41
2023-04-02T02:34:50.182Z,9.38
2023-04-02T02:35:50.231Z,9.35
2023-04-02T02:36:50.277Z,9.33
2023-04-02T02:37:50.311Z,9.30
2023-04-02T02:38:50.390Z,9.26
2023-04-02T02:39:50.425Z,9.23
2023-04-02T02:40:50.525Z,9.28
2023-04-02T02:41:50.582Z,9.23
2023-04-02T02:42:50.672Z,9.25
2023-04-02T02:43:50.734Z,9.28
2023-04-02T02:44:50.812Z,9.31
2023-04-02T02:45:50.906Z,9.32
2023-04-02T02:46:50.909Z,9.36
2023-04-02T02:47:50.999Z,9.35
2023-04-02T02:48:51.047Z,9.30
2023-04-02T02:49:51.123Z,9.30
2023-04-02T02:50:51.190Z,9.32
2023-04-02T02:51:51.256Z,9.34
2023-04-02T02:52:51.357Z,9.30
2023-04-02T02:53:51.360Z,9.15
2023-04-02T02:54:51.412Z,9.11
2023-04-02T02:55:51.454Z,9.13
2023-04-02T02:56:51.524Z,9.17
2023-04-02T02:57:51.569Z,9.22
2023-04-02T02:58:51.605Z,9.26
2023-04-02T02:59:51.665Z,9.30
2023-04-02T03:00:51.722Z,9.31
2023-04-02T03:01:51.787Z,9.29
2023-04-02T03:02:51.996Z,9.19
2023-04-02T03:03:51.985Z,9.10
2023-04-02T03:04:51.928Z,9.04
2023-04-02T03:05:51.973Z,9.07
2023-04-02T03:06:52.016Z,9.05
2023-04-02T03:07:52.057Z,9.11
2023-04-02T03:08:52.143Z,9.12
2023-04-02T03:09:52.165Z,9.13
2023-04-02T03:10:52.233Z,9.13
2023-04-02T03:11:52.277Z,9.14
2023-04-02T03:12:52.342Z,9.10
2023-04-02T03:13:52.415Z,9.10
2023-04-02T03:14:52.483Z,9.14
2023-04-02T03:15:52.598Z,9.17
2023-04-02T03:16:52.620Z,9.23
2023-04-02T03:17:52.758Z,9.25
2023-04-02T03:18:52.755Z,9.26
2023-04-02T03:19:52.820Z,9.26
2023-04-02T03:20:52.891Z,9.27
2023-04-02T03:21:52.943Z,9.13
2023-04-02T03:22:53.001Z,8.97
2023-04-02T03:23:53.059Z,8.98
2023-04-02T03:24:53.147Z,8.96
2023-04-02T03:25:53.170Z,8.97
2023-04-02T03:26:53.243Z,8.98
2023-04-02T03:27:53.295Z,9.00
2023-04-02T03:28:53.359Z,9.05
2023-04-02T03:29:53.430Z,9.08
2023-04-02T03:30:53.539Z,9.11
2023-04-02T03:31:53.553Z,9.04
2023-04-02T03:32:53.645Z,8.97
2023-04-02T03:33:53.638Z,9.00
2023-04-02T03:34:53.685Z,8.98
2023-04-02T03:35:53.748Z,9.01
2023-04-02T03:36:53.769Z,9.04
2023-04-02T03:37:53.814Z,9.04
2023-04-02T03:38:53.860Z,9.06
2023-04-02T03:39:53.922Z,9.06
2023-04-02T03:40:54.022Z,9.06
2023-04-02T03:41:54.057Z,9.05
2023-04-02T03:42:54.135Z,9.04
2023-04-02T03:43:54.219Z,8.99
2023-04-02T03:44:54.298Z,8.99
2023-04-02T03:45:54.350Z,8.96
2023-04-02T03:46:54.448Z,8.96
2023-04-02T03:47:54.515Z,8.97
2023-04-02T03:48:54.569Z,8.95
2023-04-02T03:49:54.609Z,8.93
2023-04-02T03:50:54.692Z,8.94
2023-04-02T03:51:54.746Z,8.94
2023-04-02T03:52:54.778Z,8.96
2023-04-02T03:53:54.829Z,8.93
2023-04-02T03:54:54.862Z,8.92
2023-04-02T03:55:54.907Z,8.93
2023-04-02T03:56:55.056Z,8.92
2023-04-02T03:57:54.974Z,8.88
2023-04-02T03:58:55.002Z,8.82
2023-04-02T03:59:55.026Z,8.78
2023-04-02T04:00:55.045Z,8.75
2023-04-02T04:01:55.129Z,8.76
2023-04-02T04:02:55.160Z,8.77
2023-04-02T04:03:55.122Z,8.77
2023-04-02T04:04:55.138Z,8.74
2023-04-02T04:05:55.174Z,8.74
2023-04-02T04:06:55.192Z,8.74
2023-04-02T04:07:55.229Z,8.73
2023-04-02T04:08:55.269Z,8.72
2023-04-02T04:09:55.325Z,8.67
2023-04-02T04:10:55.378Z,8.67
2023-04-02T04:11:55.378Z,8.66
2023-04-02T04:12:55.429Z,8.62
2023-04-02T04:13:55.434Z,8.60
2023-04-02T04:14:55.496Z,8.57
2023-04-02T04:15:55.525Z,8.58
2023-04-02T04:16:55.699Z,8.57
2023-04-02T04:17:55.577Z,8.56
2023-04-02T04:18:55.577Z,8.45
2023-04-02T04:19:55.622Z,8.42
2023-04-02T04:20:55.671Z,8.41
2023-04-02T04:21:55.697Z,8.32
2023-04-02T04:22:55.921Z,8.26
2023-04-02T04:23:55.769Z,8.28
2023-04-02T04:24:55.811Z,8.32
2023-04-02T04:25:55.855Z,8.28
2023-04-02T04:26:55.874Z,8.25
2023-04-02T04:27:55.908Z,8.28
2023-04-02T04:28:55.958Z,8.28
2023-04-02T04:29:55.953Z,8.32
2023-04-02T04:30:55.981Z,8.33
2023-04-02T04:31:56.183Z,8.33
2023-04-02T04:32:56.062Z,8.33
2023-04-02T04:33:56.039Z,8.36
2023-04-02T04:34:56.055Z,8.34
2023-04-02T04:35:56.154Z,8.32
2023-04-02T04:36:56.109Z,8.33
2023-04-02T04:37:56.130Z,8.33
2023-04-02T04:38:56.153Z,8.35
2023-04-02T04:39:56.181Z,8.36
2023-04-02T04:40:56.203Z,8.36
2023-04-02T04:41:56.250Z,8.33
2023-04-02T04:42:56.280Z,8.35
2023-04-02T04:43:56.320Z,8.34
2023-04-02T04:44:56.372Z,8.36
2023-04-02T04:45:56.426Z,8.34
2023-04-02T04:46:56.418Z,8.35
2023-04-02T04:47:56.508Z,8.35
2023-04-02T04:48:56.454Z,8.33
2023-04-02T04:49:56.503Z,8.33
2023-04-02T04:50:56.522Z,8.34
2023-04-02T04:51:56.560Z,8.35
2023-04-02T04:52:56.754Z,8.35
2023-04-02T04:53:56.626Z,8.32
2023-04-02T04:54:56.658Z,8.30
2023-04-02T04:55:59.678Z,8.29
2023-04-02T04:56:56.718Z,8.28
2023-04-02T04:57:56.717Z,8.24
2023-04-02T04:58:56.724Z,8.24
2023-04-02T04:59:56.732Z,8.24
2023-04-02T05:00:56.760Z,8.25
2023-04-02T05:01:56.796Z,8.21
2023-04-02T05:02:56.773Z,8.21
2023-04-02T05:03:56.793Z,8.21
2023-04-02T05:04:56.878Z,8.22
2023-04-02T05:05:56.794Z,8.20
2023-04-02T05:06:56.823Z,8.20
2023-04-02T05:07:57.929Z,8.21
2023-04-02T05:08:56.861Z,8.22
2023-04-02T05:09:56.886Z,8.24
2023-04-02T05:10:56.905Z,8.25
2023-04-02T05:11:56.948Z,8.24
2023-04-02T05:12:56.953Z,8.23
2023-04-02T05:13:56.968Z,8.20
2023-04-02T05:14:57.017Z,8.16
2023-04-02T05:15:57.776Z,8.18
2023-04-02T05:16:57.076Z,8.21
2023-04-02T05:17:57.088Z,8.21
2023-04-02T05:18:57.094Z,8.08
2023-04-02T05:19:57.130Z,8.04
2023-04-02T05:20:57.124Z,8.02
2023-04-02T05:21:57.159Z,7.80
2023-04-02T05:22:57.177Z,7.85
2023-04-02T05:23:57.211Z,7.90
2023-04-02T05:24:57.253Z,7.89
2023-04-02T05:25:57.263Z,7.94
2023-04-02T05:26:57.299Z,7.93
2023-04-02T05:27:57.326Z,7.92
2023-04-02T05:28:57.387Z,7.92
2023-04-02T05:29:57.383Z,7.95
2023-04-02T05:30:56.487Z,7.98
2023-04-02T05:31:57.449Z,8.03
2023-04-02T05:32:57.623Z,8.06
2023-04-02T05:33:57.508Z,8.08
2023-04-02T05:34:57.528Z,8.01
2023-04-02T05:35:57.643Z,8.02
2023-04-02T05:36:57.582Z,8.04
2023-04-02T05:37:57.609Z,8.00
2023-04-02T05:38:57.647Z,8.00
2023-04-02T05:39:57.655Z,8.01
2023-04-02T05:40:57.668Z,8.07
2023-04-02T05:41:57.693Z,8.11
2023-04-02T05:42:57.712Z,8.17
2023-04-02T05:43:57.730Z,8.21
2023-04-02T05:44:57.738Z,8.24
2023-04-02T05:45:57.752Z,8.29
2023-04-02T05:46:57.810Z,8.34
2023-04-02T05:47:57.825Z,8.37
2023-04-02T05:48:57.828Z,8.42
2023-04-02T05:49:57.810Z,8.49
2023-04-02T05:50:57.826Z,8.55
2023-04-02T05:51:57.926Z,8.61
2023-04-02T05:52:57.864Z,8.65
2023-04-02T05:53:57.914Z,8.68
2023-04-02T05:54:57.946Z,8.71
2023-04-02T05:55:58.008Z,8.75
2023-04-02T05:56:58.038Z,8.78
2023-04-02T05:58:17.704Z,8.83
2023-04-02T05:58:58.317Z,8.86
2023-04-02T05:59:58.077Z,8.88
2023-04-02T06:00:58.087Z,8.92
2023-04-02T06:01:58.162Z,8.93
2023-04-02T06:02:58.182Z,8.94
2023-04-02T06:03:58.171Z,8.96
2023-04-02T06:04:58.149Z,9.00
2023-04-02T06:05:58.124Z,9.01
2023-04-02T06:06:58.127Z,9.05
2023-04-02T06:07:58.152Z,9.08
2023-04-02T06:08:58.149Z,9.11
2023-04-02T06:09:58.155Z,9.15
2023-04-02T06:10:58.176Z,9.18
2023-04-02T06:11:58.168Z,9.21
2023-04-02T06:12:58.175Z,9.18
2023-04-02T06:13:58.202Z,9.13
2023-04-02T06:14:58.203Z,9.05
2023-04-02T06:15:58.217Z,9.04
2023-04-02T06:16:58.279Z,9.06
2023-04-02T06:17:58.279Z,9.09
2023-04-02T06:18:58.258Z,9.12
2023-04-02T06:19:58.263Z,9.18
2023-04-02T06:20:58.319Z,9.25
2023-04-02T06:21:58.288Z,9.25
2023-04-02T06:22:58.291Z,9.30
2023-04-02T06:23:58.308Z,9.35
2023-04-02T06:24:58.312Z,9.33
2023-04-02T06:25:58.347Z,9.33
2023-04-02T06:26:58.409Z,9.38
2023-04-02T06:27:58.491Z,9.45
2023-04-02T06:28:58.537Z,9.52
2023-04-02T06:29:58.582Z,9.56
2023-04-02T06:30:58.694Z,9.61
2023-04-02T06:31:58.674Z,9.66
2023-04-02T06:32:58.757Z,9.68
2023-04-02T06:33:58.732Z,9.64
2023-04-02T06:34:58.771Z,9.70
2023-04-02T06:35:58.845Z,9.77
2023-04-02T06:36:58.823Z,9.83
2023-04-02T06:37:58.825Z,9.86
2023-04-02T06:38:58.841Z,9.90
2023-04-02T06:39:58.857Z,9.89
2023-04-02T06:40:59.176Z,9.91
2023-04-02T06:41:58.844Z,9.92
2023-04-02T06:42:58.864Z,9.91
2023-04-02T06:43:58.889Z,9.94
2023-04-02T06:44:58.848Z,9.97
2023-04-02T06:45:58.941Z,10.00
2023-04-02T06:46:58.847Z,10.05
2023-04-02T06:47:58.968Z,10.09
2023-04-02T06:48:58.838Z,10.15
2023-04-02T06:49:58.833Z,10.22
2023-04-02T06:50:58.835Z,10.29
2023-04-02T06:51:58.844Z,10.34
2023-04-02T06:52:58.924Z,10.39
2023-04-02T06:53:58.936Z,10.43
2023-04-02T06:54:58.980Z,10.49
2023-04-02T06:55:58.980Z,10.54
2023-04-02T06:56:59.081Z,10.56
2023-04-02T06:57:59.053Z,10.59
2023-04-02T06:58:59.104Z,10.63
2023-04-02T06:59:59.149Z,10.68
2023-04-02T07:00:59.200Z,10.74
2023-04-02T07:01:59.262Z,10.79
2023-04-02T07:02:59.319Z,10.77
2023-04-02T07:03:59.361Z,10.80
2023-04-02T07:04:59.426Z,10.71
2023-04-02T07:05:59.445Z,10.74
2023-04-02T07:06:59.476Z,10.80
2023-04-02T07:07:59.524Z,10.88
2023-04-02T07:08:59.583Z,10.94
2023-04-02T07:09:59.586Z,10.99
2023-04-02T07:10:59.609Z,11.04
2023-04-02T07:11:59.626Z,11.11
2023-04-02T07:12:59.644Z,11.09
2023-04-02T07:13:59.692Z,11.14
2023-04-02T07:14:59.709Z,11.20
2023-04-02T07:15:59.787Z,11.27
2023-04-02T07:16:59.760Z,11.32
2023-04-02T07:17:59.811Z,11.37
2023-04-02T07:18:59.802Z,11.37
2023-04-02T07:20:00.229Z,11.39
2023-04-02T07:20:59.857Z,11.38
2023-04-02T07:21:59.875Z,11.43
2023-04-02T07:22:59.912Z,11.49
2023-04-02T07:23:59.924Z,11.43
2023-04-02T07:25:00.023Z,11.43
2023-04-02T07:25:59.999Z,11.51
2023-04-02T07:27:00.031Z,11.58
2023-04-02T07:28:00.060Z,11.69
2023-04-02T07:29:00.031Z,11.75
2023-04-02T07:30:00.030Z,11.74
2023-04-02T07:31:00.005Z,11.76
2023-04-02T07:31:59.976Z,11.85
2023-04-02T07:32:59.984Z,11.77
2023-04-02T07:33:58.921Z,11.86
2023-04-02T07:34:59.942Z,11.98
2023-04-02T07:36:00.005Z,12.07
2023-04-02T07:37:00.009Z,12.11
2023-04-02T07:38:00.021Z,12.20
2023-04-02T07:39:00.040Z,12.23
2023-04-02T07:40:00.017Z,12.23
2023-04-02T07:41:00.105Z,12.29
2023-04-02T07:42:00.080Z,12.32
2023-04-02T07:43:00.074Z,12.40
2023-04-02T07:44:00.079Z,12.43
2023-04-02T07:45:00.144Z,12.43
2023-04-02T07:46:00.170Z,12.50
2023-04-02T07:47:00.303Z,12.59
2023-04-02T07:48:00.231Z,12.69
2023-04-02T07:49:00.188Z,12.68
2023-04-02T07:50:00.205Z,12.69
2023-04-02T07:51:00.208Z,12.75
2023-04-02T07:52:00.203Z,12.79
2023-04-02T07:53:00.175Z,12.84
2023-04-02T07:54:00.162Z,12.90
2023-04-02T07:55:00.157Z,12.91
2023-04-02T07:56:00.144Z,12.89
2023-04-02T07:57:00.210Z,12.93
2023-04-02T07:58:00.180Z,12.95
2023-04-02T07:59:00.156Z,12.98
2023-04-02T08:00:00.178Z,13.05
2023-04-02T08:01:00.162Z,13.07
2023-04-02T08:02:00.215Z,12.95
2023-04-02T08:03:00.201Z,12.98
2023-04-02T08:04:00.169Z,13.05
2023-04-02T08:05:00.073Z,13.10
2023-04-02T08:06:00.040Z,13.14
2023-04-02T08:06:59.986Z,13.04
2023-04-02T08:07:59.952Z,13.11
2023-04-02T08:08:59.870Z,13.21
2023-04-02T08:09:59.823Z,13.28
2023-04-02T08:10:59.802Z,13.32
2023-04-02T08:11:59.742Z,13.35
2023-04-02T08:12:59.715Z,13.33
2023-04-02T08:13:59.681Z,13.40
2023-04-02T08:15:00.028Z,13.37
2023-04-02T08:15:59.639Z,13.39
2023-04-02T08:16:59.729Z,13.37
2023-04-02T08:17:59.685Z,13.42
2023-04-02T08:18:59.668Z,13.44
2023-04-02T08:19:59.663Z,13.38
2023-04-02T08:20:59.694Z,13.38
2023-04-02T08:21:59.665Z,13.46
2023-04-02T08:22:59.680Z,13.51
2023-04-02T08:23:59.702Z,13.55
2023-04-02T08:24:59.668Z,13.57
2023-04-02T08:25:59.640Z,13.63
2023-04-02T08:26:59.618Z,13.67
2023-04-02T08:27:59.572Z,13.54
2023-04-02T08:28:59.566Z,13.50
2023-04-02T08:29:59.498Z,13.59
2023-04-02T08:30:59.527Z,13.59
2023-04-02T08:31:59.448Z,13.52
2023-04-02T08:32:59.468Z,13.62
2023-04-02T08:33:59.393Z,13.70
2023-04-02T08:35:00.452Z,13.69
2023-04-02T08:35:59.404Z,13.76
2023-04-02T08:36:59.312Z,13.81
2023-04-02T08:37:59.270Z,13.85
2023-04-02T08:38:59.256Z,13.87
2023-04-02T08:39:59.268Z,13.85
2023-04-02T08:40:59.282Z,13.79
2023-04-02T08:41:59.241Z,13.82
2023-04-02T08:42:59.192Z,13.80
2023-04-02T08:43:59.177Z,13.83
2023-04-02T08:44:59.228Z,13.86
2023-04-02T08:45:59.213Z,13.99
2023-04-02T08:46:59.189Z,14.00
2023-04-02T08:47:59.247Z,14.10
2023-04-02T08:48:59.169Z,14.22
2023-04-02T08:49:59.116Z,14.34
2023-04-02T08:50:59.072Z,14.45
2023-04-02T08:51:59.053Z,14.51
2023-04-02T08:52:59.019Z,14.55
2023-04-02T08:53:58.954Z,14.61
2023-04-02T08:54:58.914Z,14.62
2023-04-02T08:55:58.889Z,14.68
2023-04-02T08:56:58.858Z,14.74
2023-04-02T08:57:58.766Z,14.74
2023-04-02T08:58:58.737Z,14.78
2023-04-02T08:59:58.720Z,14.89
2023-04-02T09:00:58.740Z,15.02
2023-04-02T09:01:58.818Z,15.09
2023-04-02T09:02:58.723Z,15.02
2023-04-02T09:03:58.690Z,15.11
2023-04-02T09:04:58.677Z,15.14
2023-04-02T09:05:58.652Z,15.17
2023-04-02T09:06:58.695Z,15.28
2023-04-02T09:07:58.641Z,15.31
2023-04-02T09:08:58.634Z,15.31
2023-04-02T09:09:58.656Z,15.33
2023-04-02T09:10:58.625Z,15.41
2023-04-02T09:11:58.616Z,15.49
2023-04-02T09:12:58.616Z,15.54
2023-04-02T09:13:58.578Z,15.63
2023-04-02T09:14:58.706Z,15.67
2023-04-02T09:15:58.554Z,15.65
2023-04-02T09:16:58.548Z,15.66
2023-04-02T09:17:59.612Z,15.66
2023-04-02T09:18:58.505Z,15.69
2023-04-02T09:19:58.489Z,15.60
2023-04-02T09:20:58.474Z,15.55
2023-04-02T09:21:58.445Z,15.61
2023-04-02T09:22:58.430Z,15.69
2023-04-02T09:23:58.410Z,15.74
2023-04-02T09:24:58.393Z,15.77
2023-04-02T09:26:04.121Z,15.82
2023-04-02T09:26:58.324Z,15.67
2023-04-02T09:27:58.241Z,15.66
2023-04-02T09:28:58.166Z,15.73
2023-04-02T09:29:57.091Z,15.75
2023-04-02T09:30:58.024Z,15.82
2023-04-02T09:31:58.053Z,15.83
2023-04-02T09:32:58.001Z,15.84
2023-04-02T09:33:57.852Z,15.92
2023-04-02T09:34:57.764Z,15.93
2023-04-02T09:35:57.882Z,16.00
2023-04-02T09:36:57.637Z,16.04
2023-04-02T09:37:57.554Z,16.07
2023-04-02T09:38:57.558Z,16.11
2023-04-02T09:39:57.507Z,16.13
2023-04-02T09:40:57.473Z,16.23
2023-04-02T09:42:05.148Z,16.27
2023-04-02T09:42:57.374Z,16.30
2023-04-02T09:43:57.513Z,16.18
2023-04-02T09:44:57.210Z,16.22
2023-04-02T09:45:57.122Z,16.24
2023-04-02T09:46:57.083Z,16.12
2023-04-02T09:47:57.033Z,16.02
2023-04-02T09:48:56.936Z,16.03
2023-04-02T09:49:56.846Z,15.93
2023-04-02T09:50:56.752Z,15.91
2023-04-02T09:51:56.678Z,15.82
2023-04-02T09:52:56.612Z,15.84
2023-04-02T09:53:56.552Z,15.81
2023-04-02T09:54:56.513Z,15.76
2023-04-02T09:55:56.411Z,15.63
2023-04-02T09:56:56.360Z,15.71
2023-04-02T09:57:56.282Z,15.71
2023-04-02T09:58:56.215Z,15.75
2023-04-02T09:59:56.143Z,15.80
2023-04-02T10:00:56.089Z,15.90
2023-04-02T10:01:56.065Z,15.96
2023-04-02T10:02:55.910Z,16.02
2023-04-02T10:03:55.841Z,16.06
2023-04-02T10:04:55.764Z,16.11
2023-04-02T10:05:55.660Z,16.09
2023-04-02T10:06:55.597Z,15.73
2023-04-02T10:07:55.551Z,15.55
2023-04-02T10:08:55.538Z,15.55
2023-04-02T10:09:55.488Z,15.49
2023-04-02T10:10:55.476Z,15.62
2023-04-02T10:11:55.448Z,15.77
2023-04-02T10:12:55.400Z,15.87
2023-04-02T10:13:55.372Z,15.94
2023-04-02T10:14:55.331Z,15.79
2023-04-02T10:15:55.286Z,15.81
2023-04-02T10:16:55.290Z,15.82
2023-04-02T10:17:55.234Z,15.71
2023-04-02T10:18:55.224Z,15.78
2023-04-02T10:19:55.191Z,15.92
2023-04-02T10:20:55.160Z,16.00
2023-04-02T10:21:55.088Z,15.83
2023-04-02T10:22:55.076Z,15.58
2023-04-02T10:23:55.106Z,15.49
2023-04-02T10:24:55.100Z,15.56
2023-04-02T10:25:55.068Z,15.52
2023-04-02T10:26:55.076Z,15.48
2023-04-02T10:27:55.063Z,15.48
2023-04-02T10:28:55.056Z,15.37
2023-04-02T10:29:55.072Z,15.31
2023-04-02T10:30:55.116Z,15.29
2023-04-02T10:31:55.118Z,15.03
2023-04-02T10:32:55.130Z,14.90
2023-04-02T10:33:55.147Z,14.64
2023-04-02T10:34:55.175Z,14.67
2023-04-02T10:35:55.246Z,14.66
2023-04-02T10:36:55.202Z,14.75
2023-04-02T10:37:55.191Z,14.80
2023-04-02T10:38:55.227Z,14.87
2023-04-02T10:39:55.253Z,14.81
2023-04-02T10:40:56.952Z,14.76
2023-04-02T10:41:55.203Z,14.48
2023-04-02T10:42:55.190Z,14.14
2023-04-02T10:43:55.906Z,13.83
2023-04-02T10:44:55.203Z,13.72
2023-04-02T10:45:55.226Z,13.86
2023-04-02T10:46:55.189Z,13.91
2023-04-02T10:47:55.230Z,13.84
2023-04-02T10:48:55.213Z,13.79
2023-04-02T10:49:55.174Z,13.71
2023-04-02T10:50:55.205Z,13.58
2023-04-02T10:51:55.184Z,13.46
2023-04-02T10:52:56.521Z,13.45
2023-04-02T10:53:55.294Z,13.39
2023-04-02T10:54:55.335Z,13.31
2023-04-02T10:55:55.396Z,13.18
2023-04-02T10:56:55.458Z,13.03
2023-04-02T10:57:55.441Z,12.92
2023-04-02T10:58:57.323Z,12.87
2023-04-02T10:59:55.517Z,12.84
2023-04-02T11:00:55.542Z,12.86
2023-04-02T11:01:55.639Z,12.84
2023-04-02T11:02:55.646Z,12.77
2023-04-02T11:03:57.874Z,12.74
2023-04-02T11:04:57.198Z,12.80
2023-04-02T11:05:56.969Z,12.75
2023-04-02T11:07:07.225Z,12.77
2023-04-02T11:07:55.709Z,12.87
2023-04-02T11:08:55.747Z,12.91
2023-04-02T11:09:55.698Z,13.00
2023-04-02T11:10:55.705Z,13.07
2023-04-02T11:11:55.687Z,13.13
2023-04-02T11:12:55.687Z,13.15
2023-04-02T11:13:55.672Z,13.15
2023-04-02T11:14:55.664Z,13.14
2023-04-02T11:15:55.722Z,13.13
2023-04-02T11:16:55.672Z,13.16
2023-04-02T11:17:55.712Z,13.22
2023-04-02T11:18:55.681Z,13.27
2023-04-02T11:19:55.655Z,13.32
2023-04-02T11:20:55.667Z,13.41
2023-04-02T11:21:59.375Z,13.42
2023-04-02T11:22:55.838Z,13.47
2023-04-02T11:23:55.640Z,13.45
2023-04-02T11:24:55.662Z,13.39
2023-04-02T11:25:55.632Z,13.40
2023-04-02T11:26:55.619Z,13.39
2023-04-02T11:27:55.601Z,13.19
2023-04-02T11:28:55.593Z,13.26
2023-04-02T11:29:55.590Z,13.29
2023-04-02T11:30:55.594Z,13.31
2023-04-02T11:31:55.615Z,13.27
2023-04-02T11:32:55.592Z,13.29
2023-04-02T11:33:55.561Z,13.30
2023-04-02T11:35:54.643Z,13.37
2023-04-02T11:36:55.541Z,13.32
2023-04-02T11:37:55.547Z,13.29
2023-04-02T11:39:04.428Z,13.27
2023-04-02T11:39:55.507Z,13.22
2023-04-02T11:40:55.530Z,13.21
2023-04-02T11:41:55.479Z,13.20
2023-04-02T11:42:55.465Z,13.21
2023-04-02T11:43:55.485Z,13.24
2023-04-02T11:44:55.460Z,13.28
2023-04-02T11:45:55.815Z,13.32
2023-04-02T11:46:55.548Z,13.35
2023-04-02T11:47:55.532Z,13.36
2023-04-02T11:48:55.472Z,13.36
2023-04-02T11:49:55.491Z,13.37
2023-04-02T11:50:55.464Z,13.34
2023-04-02T11:52:09.104Z,13.36
2023-04-02T11:52:55.452Z,13.44
2023-04-02T11:53:55.426Z,13.51
2023-04-02T11:54:55.432Z,13.54
2023-04-02T11:55:55.426Z,13.55
2023-04-02T11:56:55.467Z,13.63
2023-04-02T11:57:55.392Z,13.61
2023-04-02T11:58:55.382Z,13.58
2023-04-02T11:59:55.371Z,13.57
2023-04-02T12:00:55.359Z,13.47
2023-04-02T12:01:55.404Z,13.47
2023-04-02T12:02:55.793Z,13.47
2023-04-02T12:03:55.345Z,13.53
2023-04-02T12:04:55.366Z,13.56
2023-04-02T12:05:55.317Z,13.64
2023-04-02T12:06:55.301Z,13.68
2023-04-02T12:07:55.278Z,13.70
2023-04-02T12:08:58.091Z,13.68
2023-04-02T12:09:55.237Z,13.80
2023-04-02T12:10:55.213Z,13.81
2023-04-02T12:11:55.216Z,13.87
2023-04-02T12:12:55.201Z,13.91
2023-04-02T12:13:55.152Z,13.98
2023-04-02T12:14:55.130Z,14.03
2023-04-02T12:15:55.100Z,14.16
2023-04-02T12:16:55.120Z,14.28
2023-04-02T12:17:55.108Z,14.32
2023-04-02T12:18:55.048Z,14.35
2023-04-02T12:19:55.012Z,14.33
2023-04-02T12:20:55.012Z,14.37
2023-04-02T12:21:54.992Z,14.39
2023-04-02T12:22:54.970Z,14.45
2023-04-02T12:23:54.932Z,14.50
2023-04-02T12:24:54.913Z,14.47
2023-04-02T12:25:54.893Z,14.55
2023-04-02T12:26:54.856Z,14.58
2023-04-02T12:27:54.844Z,14.55
2023-04-02T12:28:54.853Z,14.54
2023-04-02T12:29:54.832Z,14.54
2023-04-02T12:30:54.870Z,14.55
2023-04-02T12:31:54.907Z,14.49
2023-04-02T12:32:54.851Z,14.54
2023-04-02T12:33:54.875Z,14.49
2023-04-02T12:34:54.835Z,14.35
2023-04-02T12:35:54.881Z,14.35
2023-04-02T12:36:54.872Z,14.46
2023-04-02T12:37:54.908Z,14.52
2023-04-02T12:38:54.919Z,14.55
2023-04-02T12:39:54.970Z,14.59
2023-04-02T12:40:54.940Z,14.54
2023-04-02T12:41:54.953Z,14.36
2023-04-02T12:42:54.965Z,14.30
2023-04-02T12:43:54.983Z,14.20
2023-04-02T12:44:55.034Z,14.17
2023-04-02T12:45:55.085Z,14.24
2023-04-02T12:46:54.996Z,14.27
2023-04-02T12:47:55.033Z,14.18
2023-04-02T12:48:55.044Z,14.19
2023-04-02T12:49:55.051Z,14.18
2023-04-02T12:50:55.076Z,14.25
2023-04-02T12:51:55.072Z,14.22
2023-04-02T12:52:55.166Z,14.19
2023-04-02T12:53:55.089Z,14.20
2023-04-02T12:54:55.093Z,14.31
2023-04-02T12:55:55.148Z,14.37
2023-04-02T12:56:57.711Z,14.34
2023-04-02T12:57:55.123Z,14.25
2023-04-02T12:58:55.107Z,14.20
2023-04-02T12:59:55.085Z,14.10
2023-04-02T13:00:55.100Z,14.07
2023-04-02T13:01:55.074Z,14.04
2023-04-02T13:02:55.110Z,13.90
2023-04-02T13:03:55.124Z,13.83
2023-04-02T13:04:55.500Z,13.81
2023-04-02T13:05:55.056Z,13.77
2023-04-02T13:06:55.044Z,13.88